createdAt,value
2018-02-01T00:00:05.383Z,97338.50
2018-02-01T00:02:34.661Z,97335.91
2018-02-01T00:05:04.210Z,97332.38
2018-02-01T00:07:33.267Z,97328.91
2018-02-01T00:10:03.192Z,97322.78
2018-02-01T00:12:33.099Z,97321.39
2018-02-01T00:15:02.906Z,97324.80
2018-02-01T00:17:32.744Z,97294.59
2018-02-01T00:20:02.563Z,97326.19
2018-02-01T00:22:32.107Z,97330.48
2018-02-01T00:25:01.685Z,97322.38
2018-02-01T00:27:31.496Z,97315.67
2018-02-01T00:30:01.450Z,97319.66
2018-02-01T00:32:31.038Z,97316.28
2018-02-01T00:35:00.921Z,97308.17
2018-02-01T00:37:30.580Z,97302.45
2018-02-01T00:40:00.524Z,97313.58
2018-02-01T00:42:30.318Z,97313.80
2018-02-01T00:45:00.136Z,97301.19
2018-02-01T00:47:29.950Z,97298.77
2018-02-01T00:49:59.607Z,97298.43
2018-02-01T00:52:29.586Z,97300.57
2018-02-01T00:54:59.568Z,97304.26
2018-02-01T00:57:29.389Z,97301.44
2018-02-01T00:59:59.349Z,97304.91
2018-02-01T01:02:29.303Z,97291.73
2018-02-01T01:04:59.121Z,97294.55
2018-02-01T01:07:29.216Z,97294.13
2018-02-01T01:09:59.646Z,97295.04
2018-02-01T01:12:29.252Z,97299.95
2018-02-01T01:14:59.056Z,97301.68
2018-02-01T01:17:28.925Z,97296.77
2018-02-01T01:19:59.046Z,97296.67
2018-02-01T01:22:28.918Z,97299.38
2018-02-01T01:24:58.701Z,97300.08
2018-02-01T01:27:28.590Z,97292.16
2018-02-01T01:29:58.456Z,97294.14
2018-02-01T01:32:28.274Z,97281.72
2018-02-01T01:34:58.104Z,97280.56
2018-02-01T01:37:27.993Z,97285.36
2018-02-01T01:39:57.800Z,97275.08
2018-02-01T01:42:27.828Z,97276.24
2018-02-01T01:44:57.661Z,97272.23
2018-02-01T01:47:27.549Z,97256.36
2018-02-01T01:49:57.368Z,97255.50
2018-02-01T01:52:26.931Z,97260.82
2018-02-01T01:54:56.786Z,97256.48
2018-02-01T01:57:26.781Z,97256.59
2018-02-01T01:59:56.709Z,97251.61
2018-02-01T02:02:26.520Z,97247.22
2018-02-01T02:04:56.469Z,97236.60
2018-02-01T02:07:26.450Z,97245.31
2018-02-01T02:09:56.275Z,97235.14
2018-02-01T02:12:26.156Z,97231.92
2018-02-01T02:14:56.084Z,97226.14
2018-02-01T02:17:25.944Z,97225.72
2018-02-01T02:19:55.558Z,97223.48
2018-02-01T02:22:24.797Z,97215.33
2018-02-01T02:24:54.466Z,97220.06
2018-02-01T02:27:24.319Z,97217.25
2018-02-01T02:29:54.172Z,97222.12
2018-02-01T02:32:24.397Z,97220.23
2018-02-01T02:34:54.226Z,97208.44
2018-02-01T02:37:24.092Z,97214.34
2018-02-01T02:39:54.256Z,97200.02
2018-02-01T02:42:25.734Z,97206.38
2018-02-01T02:44:55.830Z,97204.53
2018-02-01T02:47:26.714Z,97203.72
2018-02-01T02:49:56.582Z,97199.91
2018-02-01T02:52:26.680Z,97197.72
2018-02-01T02:54:56.543Z,97192.55
2018-02-01T02:57:26.468Z,97188.09
2018-02-01T02:59:56.541Z,97186.48
2018-02-01T03:02:26.372Z,97181.61
2018-02-01T03:04:56.373Z,97183.10
2018-02-01T03:07:26.229Z,97187.09
2018-02-01T03:09:56.078Z,97184.57
2018-02-01T03:12:25.961Z,97189.95
2018-02-01T03:14:55.828Z,97189.47
2018-02-01T03:17:25.682Z,97195.02
2018-02-01T03:19:55.571Z,97188.37
2018-02-01T03:22:25.410Z,97192.20
2018-02-01T03:24:55.251Z,97187.56
2018-02-01T03:27:25.416Z,97189.95
2018-02-01T03:29:55.278Z,97185.42
2018-02-01T03:32:25.093Z,97191.89
2018-02-01T03:34:54.644Z,97187.75
2018-02-01T03:37:24.468Z,97180.87
2018-02-01T03:39:54.299Z,97181.80
2018-02-01T03:42:24.109Z,97187.00
2018-02-01T03:44:53.917Z,97176.00
2018-02-01T03:47:23.765Z,97176.25
2018-02-01T03:49:53.752Z,97167.94
2018-02-01T03:52:23.604Z,97174.70
2018-02-01T03:54:53.440Z,97190.13
2018-02-01T03:57:23.494Z,97188.95
2018-02-01T03:59:53.325Z,97188.58
2018-02-01T04:02:23.373Z,97187.06
2018-02-01T04:04:53.644Z,97183.77
2018-02-01T04:07:23.845Z,97191.98
2018-02-01T04:09:54.080Z,97190.70
2018-02-01T04:12:24.145Z,97194.20
2018-02-01T04:14:54.332Z,97195.13
2018-02-01T04:17:23.896Z,97185.03
2018-02-01T04:19:53.803Z,97186.69
2018-02-01T04:22:23.658Z,97183.20
2018-02-01T04:24:53.526Z,97178.83
2018-02-01T04:27:23.392Z,97180.18
2018-02-01T04:29:53.249Z,97176.53
2018-02-01T04:32:23.142Z,97177.71
2018-02-01T04:34:52.976Z,97160.95
2018-02-01T04:37:23.034Z,97174.98
2018-02-01T04:39:52.892Z,97169.59
2018-02-01T04:42:23.171Z,97168.77
2018-02-01T04:44:53.045Z,97165.61
2018-02-01T04:47:22.948Z,97178.27
2018-02-01T04:49:52.753Z,97180.11
2018-02-01T04:52:22.590Z,97179.59
2018-02-01T04:54:52.124Z,97178.00
2018-02-01T04:57:21.972Z,97178.70
2018-02-01T04:59:51.967Z,97176.91
2018-02-01T05:02:22.027Z,97178.34
2018-02-01T05:04:52.145Z,97174.38
2018-02-01T05:07:22.037Z,97178.95
2018-02-01T05:09:52.132Z,97174.21
2018-02-01T05:12:22.141Z,97171.34
2018-02-01T05:14:52.107Z,97172.41
2018-02-01T05:17:22.037Z,97177.98
2018-02-01T05:19:51.954Z,97172.04
2018-02-01T05:22:51.455Z,97178.00
2018-02-01T05:25:21.293Z,97176.13
2018-02-01T05:27:51.133Z,97181.86
2018-02-01T05:30:21.094Z,97184.55
2018-02-01T05:32:51.260Z,97183.73
2018-02-01T05:35:21.107Z,97180.44
2018-02-01T05:41:12.593Z,97186.00
2018-02-01T05:43:42.498Z,97179.34
2018-02-01T05:46:11.818Z,97179.22
2018-02-01T05:48:41.909Z,97176.64
2018-02-01T05:51:11.756Z,97180.06
2018-02-01T05:53:48.711Z,97173.17
2018-02-01T05:56:51.647Z,97169.89
2018-02-01T05:59:21.619Z,97180.58
2018-02-01T06:01:51.539Z,97175.59
2018-02-01T06:04:21.499Z,97172.27
2018-02-01T06:06:51.346Z,97183.53
2018-02-01T06:09:21.738Z,97185.71
2018-02-01T06:11:51.910Z,97183.19
2018-02-01T06:14:21.715Z,97184.98
2018-02-01T07:00:28.734Z,97167.25
2018-02-01T07:03:16.356Z,97170.47
2018-02-01T07:18:04.924Z,97164.90
2018-02-01T07:38:48.349Z,97187.47
2018-02-01T07:41:40.408Z,97182.17
2018-02-01T07:44:16.180Z,97181.84
2018-02-01T07:51:15.796Z,97172.28
2018-02-01T07:56:47.019Z,97176.05
2018-02-01T08:02:43.636Z,97176.94
2018-02-01T08:11:17.815Z,97187.80
2018-02-01T08:21:45.870Z,97190.14
2018-02-01T08:27:17.607Z,97187.07
2018-02-01T08:48:25.170Z,97195.76
2018-02-01T08:54:18.920Z,97195.63
2018-02-01T09:00:34.528Z,97191.16
2018-02-01T09:03:11.565Z,97196.98
2018-02-01T09:08:42.262Z,97201.09
2018-02-01T09:11:12.490Z,97186.83
2018-02-01T09:13:42.588Z,97187.94
2018-02-01T09:16:20.350Z,97191.95
2018-02-01T09:18:50.481Z,97188.37
2018-02-01T09:21:56.138Z,97179.09
2018-02-01T09:30:25.133Z,97179.95
2018-02-01T09:44:02.594Z,97173.82
2018-02-01T09:50:03.873Z,97166.43
2018-02-01T09:55:31.543Z,97173.95
2018-02-01T09:58:01.714Z,97170.73
2018-02-01T10:00:31.714Z,97177.30
2018-02-01T10:05:40.510Z,97172.73
2018-02-01T10:08:10.212Z,97180.38
2018-02-01T10:10:57.370Z,97174.88
2018-02-01T10:13:27.557Z,97174.20
2018-02-01T10:16:05.106Z,97177.13
2018-02-01T10:18:42.868Z,97167.61
2018-02-01T10:26:44.344Z,97152.45
2018-02-01T10:29:38.507Z,97148.03
2018-02-01T10:32:08.158Z,97141.86
2018-02-01T10:34:59.975Z,97142.07
2018-02-01T10:40:44.330Z,97140.16
2018-02-01T10:45:58.862Z,97143.40
2018-02-01T10:48:39.729Z,97151.37
2018-02-01T10:56:50.348Z,97147.56
2018-02-01T10:59:20.510Z,97150.32
2018-02-01T11:04:50.452Z,97144.14
2018-02-01T11:12:51.338Z,97128.22
2018-02-01T11:15:40.589Z,97129.55
2018-02-01T11:21:31.157Z,97119.75
2018-02-01T11:33:21.679Z,97112.34
2018-02-01T11:38:59.164Z,97107.64
2018-02-01T11:41:52.104Z,97107.08
2018-02-01T11:44:44.270Z,97112.45
2018-02-01T11:50:02.799Z,97109.66
2018-02-01T11:52:33.882Z,97107.13
2018-02-01T11:55:05.568Z,97104.30
2018-02-01T11:57:36.023Z,97096.79
2018-02-01T12:00:10.483Z,97093.89
2018-02-01T12:02:46.126Z,97092.84
2018-02-01T12:08:43.369Z,97094.06
2018-02-01T12:11:16.377Z,97092.85
2018-02-01T12:13:47.661Z,97088.47
2018-02-01T12:16:21.595Z,97088.44
2018-02-01T12:24:04.968Z,97087.25
2018-02-01T12:26:39.032Z,97085.40
2018-02-01T12:29:38.522Z,97088.77
2018-02-01T12:34:53.712Z,97083.68
2018-02-01T12:37:45.449Z,97088.08
2018-02-01T12:40:15.153Z,97086.35
2018-02-01T12:51:01.472Z,97097.52
2018-02-01T12:56:42.984Z,97101.20
2018-02-01T12:59:14.478Z,97096.37
2018-02-01T13:01:47.492Z,97096.09
2018-02-01T13:04:38.242Z,97097.81
2018-02-01T13:07:07.874Z,97098.92
2018-02-01T13:15:42.590Z,97109.42
2018-02-01T13:23:21.727Z,97121.61
2018-02-01T13:25:52.513Z,97111.02
2018-02-01T13:28:22.275Z,97117.83
2018-02-01T13:30:52.018Z,97129.34
2018-02-01T13:33:22.343Z,97138.95
2018-02-01T13:35:52.026Z,97138.81
2018-02-01T13:38:21.782Z,97134.09
2018-02-01T13:41:10.931Z,97137.53
2018-02-01T13:44:03.279Z,97148.98
2018-02-01T13:46:33.579Z,97143.34
2018-02-01T13:51:41.719Z,97153.48
2018-02-01T13:54:11.448Z,97150.12
2018-02-01T13:56:45.440Z,97154.86
2018-02-01T13:59:15.537Z,97153.64
2018-02-01T14:01:46.301Z,97154.34
2018-02-01T14:07:23.913Z,97168.41
2018-02-01T14:12:37.252Z,97169.19
2018-02-01T14:15:12.901Z,97172.56
2018-02-01T14:17:43.871Z,97186.05
2018-02-01T14:20:15.476Z,97191.34
2018-02-01T14:28:13.275Z,97201.87
2018-02-01T14:30:46.940Z,97204.46
2018-02-01T14:33:16.582Z,97213.89
2018-02-01T14:35:46.301Z,97197.78
2018-02-01T14:38:16.240Z,97190.77
2018-02-01T14:40:47.255Z,97201.30
2018-02-01T14:43:19.735Z,97213.78
2018-02-01T14:45:49.418Z,97218.64
2018-02-01T14:51:07.311Z,97230.42
2018-02-01T14:53:40.726Z,97234.34
2018-02-01T14:56:10.533Z,97238.63
2018-02-01T14:58:42.071Z,97240.47
2018-02-01T15:01:11.863Z,97236.80
2018-02-01T15:03:44.486Z,97252.66
2018-02-01T15:06:14.351Z,97251.91
2018-02-01T15:08:44.032Z,97260.75
2018-02-01T15:11:13.640Z,97260.88
2018-02-01T15:16:23.674Z,97266.59
2018-02-01T15:21:27.350Z,97277.80
2018-02-01T15:23:57.017Z,97292.45
2018-02-01T15:26:27.162Z,97296.68
2018-02-01T15:28:56.882Z,97301.58
2018-02-01T15:34:03.626Z,97306.34
2018-02-01T15:36:35.178Z,97314.98
2018-02-01T15:39:05.943Z,97312.86
2018-02-01T15:41:36.659Z,97307.64
2018-02-01T15:44:09.200Z,97312.52
2018-02-01T15:46:40.579Z,97317.10
2018-02-01T15:49:15.433Z,97317.73
2018-02-01T15:54:19.940Z,97316.00
2018-02-01T15:56:50.957Z,97316.47
2018-02-01T15:59:20.672Z,97317.02
2018-02-01T16:01:58.367Z,97315.45
2018-02-01T16:04:28.158Z,97327.75
2018-02-01T16:06:58.158Z,97331.34
2018-02-01T16:09:28.810Z,97340.48
2018-02-01T16:12:09.211Z,97336.67
2018-02-01T16:14:49.601Z,97342.83
2018-02-01T16:17:21.819Z,97347.81
2018-02-01T16:25:52.668Z,97353.67
2018-02-01T16:37:16.563Z,97378.56
2018-02-01T16:39:49.477Z,97378.96
2018-02-01T16:42:22.942Z,97380.70
2018-02-01T16:44:54.715Z,97380.65
2018-02-01T16:47:40.119Z,97384.91
2018-02-01T16:53:10.928Z,97383.38
2018-02-01T16:58:38.882Z,97396.72
2018-02-01T17:01:17.542Z,97389.26
2018-02-01T17:19:40.733Z,97418.05
2018-02-01T17:22:13.188Z,97422.53
2018-02-01T17:24:43.074Z,97430.91
2018-02-01T17:35:00.086Z,97438.19
2018-02-01T17:37:31.259Z,97432.82
2018-02-01T17:40:01.074Z,97438.75
2018-02-01T17:42:33.932Z,97437.94
2018-02-01T17:51:32.461Z,97460.58
2018-02-01T17:56:59.927Z,97449.91
2018-02-01T18:13:55.057Z,97462.98
2018-02-01T18:27:00.178Z,97460.43
2018-02-01T18:29:31.221Z,97464.02
2018-02-01T18:32:23.427Z,97468.84
2018-02-01T18:35:16.598Z,97467.64
2018-02-01T18:37:48.993Z,97479.82
2018-02-01T18:40:27.919Z,97475.34
2018-02-01T18:43:06.553Z,97472.23
2018-02-01T18:52:01.035Z,97481.11
2018-02-01T18:57:10.661Z,97486.37
2018-02-01T19:02:36.336Z,97487.66
2018-02-01T19:05:07.070Z,97485.10
2018-02-01T19:07:36.903Z,97488.29
2018-02-01T19:10:06.663Z,97485.96
2018-02-01T19:12:37.356Z,97487.77
2018-02-01T19:15:07.004Z,97488.06
2018-02-01T19:17:36.511Z,97494.25
2018-02-01T19:20:06.062Z,97496.14
2018-02-01T19:22:37.385Z,97498.00
2018-02-01T19:25:07.621Z,97498.25
2018-02-01T19:27:37.825Z,97492.09
2018-02-01T19:30:12.065Z,97499.02
2018-02-01T19:32:42.467Z,97504.05
2018-02-01T19:35:11.993Z,97501.75
2018-02-01T19:37:42.121Z,97505.34
2018-02-01T19:40:12.472Z,97504.29
2018-02-01T19:42:42.237Z,97506.91
2018-02-01T19:45:13.170Z,97498.98
2018-02-01T19:47:43.726Z,97503.38
2018-02-01T19:50:13.865Z,97501.18
2018-02-01T19:52:44.144Z,97497.72
2018-02-01T19:55:14.703Z,97498.82
2018-02-01T19:57:44.744Z,97497.89
2018-02-01T20:00:14.839Z,97499.40
2018-02-01T20:02:45.665Z,97498.91
2018-02-01T20:05:16.016Z,97510.50
2018-02-01T20:07:46.234Z,97502.47
2018-02-01T20:10:16.451Z,97502.17
2018-02-01T20:12:46.049Z,97504.38
2018-02-01T20:15:15.940Z,97507.77
2018-02-01T20:17:46.053Z,97506.55
2018-02-01T20:20:16.165Z,97506.20
2018-02-01T20:22:46.499Z,97498.00
2018-02-01T20:25:16.617Z,97509.16
2018-02-01T20:27:46.904Z,97509.88
2018-02-01T20:30:16.537Z,97511.94
2018-02-01T20:32:46.710Z,97514.38
2018-02-01T20:35:16.631Z,97519.05
2018-02-01T20:37:46.364Z,97518.75
2018-02-01T20:40:16.011Z,97518.54
2018-02-01T20:42:46.007Z,97525.77
2018-02-01T20:45:16.357Z,97521.61
2018-02-01T20:47:46.023Z,97528.16
2018-02-01T20:50:15.676Z,97522.64
2018-02-01T20:52:46.722Z,97518.23
2018-02-01T20:55:16.162Z,97520.34
2018-02-01T20:57:45.455Z,97520.96
2018-02-01T21:00:15.070Z,97518.36
2018-02-01T21:02:45.181Z,97516.33
2018-02-01T21:05:15.041Z,97516.78
2018-02-01T21:07:44.632Z,97517.08
2018-02-01T21:10:15.958Z,97516.56
2018-02-01T21:12:46.019Z,97513.61
2018-02-01T21:15:15.594Z,97511.88
2018-02-01T21:17:45.450Z,97513.55
2018-02-01T21:20:15.280Z,97510.81
2018-02-01T21:22:44.889Z,97506.50
2018-02-01T21:25:14.641Z,97514.64
2018-02-01T21:27:44.295Z,97515.10
2018-02-01T21:30:13.602Z,97516.08
2018-02-01T21:32:43.283Z,97522.33
2018-02-01T21:35:13.096Z,97515.56
2018-02-01T21:37:43.159Z,97518.04
2018-02-01T21:40:12.830Z,97520.12
2018-02-01T21:42:42.590Z,97519.48
2018-02-01T21:45:12.289Z,97515.66
2018-02-01T21:47:42.380Z,97512.45
2018-02-01T21:50:15.294Z,97525.83
2018-02-01T21:52:48.638Z,97524.01
2018-02-01T21:55:19.094Z,97518.98
2018-02-01T21:57:50.787Z,97521.34
2018-02-01T22:00:21.054Z,97521.34
2018-02-01T22:02:51.211Z,97523.03
2018-02-01T22:05:21.282Z,97524.06
2018-02-01T22:07:51.207Z,97526.34
2018-02-01T22:10:21.674Z,97531.91
2018-02-01T22:12:51.483Z,97528.25
2018-02-01T22:15:21.509Z,97532.63
2018-02-01T22:17:51.702Z,97535.91
2018-02-01T22:20:21.752Z,97528.84
2018-02-01T22:22:51.817Z,97523.06
2018-02-01T22:25:21.733Z,97531.45
2018-02-01T22:27:51.617Z,97530.91
2018-02-01T22:30:21.298Z,97524.93
2018-02-01T22:32:51.312Z,97527.84
2018-02-01T22:35:20.951Z,97528.44
2018-02-01T22:37:50.785Z,97533.30
2018-02-01T22:40:20.687Z,97531.48
2018-02-01T22:42:50.589Z,97527.53
2018-02-01T22:45:20.513Z,97530.46
2018-02-01T22:47:50.299Z,97526.53
2018-02-01T22:50:20.359Z,97530.12
2018-02-01T22:52:49.967Z,97528.22
2018-02-01T22:55:19.889Z,97528.94
2018-02-01T22:57:49.690Z,97527.77
2018-02-01T23:00:19.716Z,97530.53
2018-02-01T23:02:49.768Z,97535.78
2018-02-01T23:05:19.988Z,97537.83
2018-02-01T23:07:51.040Z,97535.89
2018-02-01T23:10:22.779Z,97542.98
2018-02-01T23:12:52.896Z,97536.40
2018-02-01T23:15:22.763Z,97540.08
2018-02-01T23:17:52.654Z,97532.72
2018-02-01T23:20:22.503Z,97536.20
2018-02-01T23:22:53.084Z,97539.06
2018-02-01T23:25:22.675Z,97535.48
2018-02-01T23:27:52.630Z,97538.03
2018-02-01T23:30:22.668Z,97547.34
2018-02-01T23:32:52.527Z,97542.95
2018-02-01T23:35:22.373Z,97548.36
2018-02-01T23:37:52.303Z,97561.30
2018-02-01T23:40:22.289Z,97553.47
2018-02-01T23:42:52.159Z,97552.66
2018-02-01T23:45:21.659Z,97561.10
2018-02-01T23:47:51.730Z,97558.73
2018-02-01T23:50:21.730Z,97561.87
2018-02-01T23:52:53.145Z,97553.38
2018-02-01T23:55:47.526Z,97555.99
2018-02-01T23:58:17.337Z,97553.53
